sensor_id;sensor_type;location;lat;lon;timestamp;pressure;altitude;pressure_sealevel;temperature;humidity
20019;BME280;10170;42.502;26.526;2022-10-23T00:01:23;100070.16;;;12.10;100.00
20019;BME280;10170;42.502;26.526;2022-10-23T00:03:54;100073.63;;;11.91;100.00
20019;BME280;10170;42.502;26.526;2022-10-23T00:06:22;100077.72;;;12.07;100.00
20019;BME280;10170;42.502;26.526;2022-10-23T00:08:49;100085.53;;;12.08;100.00
20019;BME280;10170;42.502;26.526;2022-10-23T00:11:19;100085.09;;;12.05;100.00
20019;BME280;10170;42.502;26.526;2022-10-23T00:13:46;100069.97;;;11.99;100.00
20019;BME280;10170;42.502;26.526;2022-10-23T00:16:14;100073.22;;;11.94;100.00
20019;BME280;10170;42.502;26.526;2022-10-23T00:18:41;100076.91;;;11.93;100.00
20019;BME280;10170;42.502;26.526;2022-10-23T00:21:09;100076.09;;;11.86;100.00
20019;BME280;10170;42.502;26.526;2022-10-23T00:23:37;100071.56;;;11.80;100.00
20019;BME280;10170;42.502;26.526;2022-10-23T00:26:04;100072.63;;;11.99;100.00
20019;BME280;10170;42.502;26.526;2022-10-23T00:28:30;100058.03;;;12.01;100.00
20019;BME280;10170;42.502;26.526;2022-10-23T00:31:00;100071.16;;;11.83;100.00
20019;BME280;10170;42.502;26.526;2022-10-23T00:33:27;100061.13;;;11.72;100.00
20019;BME280;10170;42.502;26.526;2022-10-23T00:35:54;100052.88;;;11.67;100.00
20019;BME280;10170;42.502;26.526;2022-10-23T00:38:21;100063.38;;;11.75;100.00
20019;BME280;10170;42.502;26.526;2022-10-23T00:40:48;100057.22;;;11.88;100.00
20019;BME280;10170;42.502;26.526;2022-10-23T00:43:23;100045.13;;;11.98;100.00
20019;BME280;10170;42.502;26.526;2022-10-23T00:45:51;100036.09;;;11.99;100.00
20019;BME280;10170;42.502;26.526;2022-10-23T00:48:18;100028.13;;;11.99;100.00
20019;BME280;10170;42.502;26.526;2022-10-23T00:50:46;100008.88;;;11.84;100.00
20019;BME280;10170;42.502;26.526;2022-10-23T00:53:14;100026.09;;;11.88;100.00
20019;BME280;10170;42.502;26.526;2022-10-23T00:55:43;100030.59;;;11.88;100.00
20019;BME280;10170;42.502;26.526;2022-10-23T00:58:13;100030.78;;;11.99;100.00
20019;BME280;10170;42.502;26.526;2022-10-23T01:00:45;100033.44;;;11.93;100.00
20019;BME280;10170;42.502;26.526;2022-10-23T01:03:14;100031.41;;;11.75;100.00
20019;BME280;10170;42.502;26.526;2022-10-23T01:05:50;100024.59;;;11.59;100.00
20019;BME280;10170;42.502;26.526;2022-10-23T01:08:27;100010.63;;;11.38;100.00
20019;BME280;10170;42.502;26.526;2022-10-23T01:14:01;100023.94;;;11.38;100.00
20019;BME280;10170;42.502;26.526;2022-10-23T01:16:55;100028.59;;;11.29;100.00
20019;BME280;10170;42.502;26.526;2022-10-23T01:19:46;100037.19;;;11.18;100.00
20019;BME280;10170;42.502;26.526;2022-10-23T01:22:35;100025.09;;;11.16;100.00
20019;BME280;10170;42.502;26.526;2022-10-23T01:27:49;100013.34;;;10.84;100.00
20019;BME280;10170;42.502;26.526;2022-10-23T01:30:18;100003.34;;;10.93;100.00
20019;BME280;10170;42.502;26.526;2022-10-23T01:32:53;99998.44;;;11.03;100.00
20019;BME280;10170;42.502;26.526;2022-10-23T01:38:27;100030.84;;;11.13;100.00
20019;BME280;10170;42.502;26.526;2022-10-23T01:41:08;100025.50;;;11.13;100.00
20019;BME280;10170;42.502;26.526;2022-10-23T01:43:53;100013.66;;;11.22;100.00
20019;BME280;10170;42.502;26.526;2022-10-23T01:46:23;99998.44;;;11.03;100.00
20019;BME280;10170;42.502;26.526;2022-10-23T01:48:54;100014.03;;;11.12;100.00
20019;BME280;10170;42.502;26.526;2022-10-23T01:51:25;100005.44;;;11.17;100.00
20019;BME280;10170;42.502;26.526;2022-10-23T01:53:55;100023.91;;;11.31;100.00
20019;BME280;10170;42.502;26.526;2022-10-23T01:56:32;100014.00;;;10.99;100.00
20019;BME280;10170;42.502;26.526;2022-10-23T01:59:04;100018.75;;;11.10;100.00
20019;BME280;10170;42.502;26.526;2022-10-23T02:01:36;100033.16;;;11.35;100.00
20019;BME280;10170;42.502;26.526;2022-10-23T02:04:07;100032.72;;;11.38;100.00
20019;BME280;10170;42.502;26.526;2022-10-23T02:06:35;100041.34;;;11.34;100.00
20019;BME280;10170;42.502;26.526;2022-10-23T02:09:04;100034.69;;;11.10;100.00
20019;BME280;10170;42.502;26.526;2022-10-23T02:11:35;100033.94;;;11.23;100.00
20019;BME280;10170;42.502;26.526;2022-10-23T02:14:15;100049.88;;;11.16;100.00
20019;BME280;10170;42.502;26.526;2022-10-23T02:16:50;100053.13;;;11.12;100.00
20019;BME280;10170;42.502;26.526;2022-10-23T02:19:46;100062.19;;;11.24;100.00
20019;BME280;10170;42.502;26.526;2022-10-23T02:22:21;100046.81;;;11.19;100.00
20019;BME280;10170;42.502;26.526;2022-10-23T02:25:13;100045.16;;;11.12;100.00
20019;BME280;10170;42.502;26.526;2022-10-23T02:27:44;100013.38;;;10.97;100.00
20019;BME280;10170;42.502;26.526;2022-10-23T02:30:14;100042.28;;;11.13;100.00
20019;BME280;10170;42.502;26.526;2022-10-23T02:32:48;100033.69;;;11.11;100.00
20019;BME280;10170;42.502;26.526;2022-10-23T02:35:17;100035.94;;;11.14;100.00
20019;BME280;10170;42.502;26.526;2022-10-23T02:37:54;100044.41;;;11.31;100.00
20019;BME280;10170;42.502;26.526;2022-10-23T02:40:23;100047.19;;;11.10;100.00
20019;BME280;10170;42.502;26.526;2022-10-23T02:43:13;100039.19;;;11.03;100.00
20019;BME280;10170;42.502;26.526;2022-10-23T02:45:57;100052.13;;;11.19;100.00
20019;BME280;10170;42.502;26.526;2022-10-23T02:48:33;100053.19;;;11.25;100.00
20019;BME280;10170;42.502;26.526;2022-10-23T02:51:13;100049.69;;;11.18;100.00
20019;BME280;10170;42.502;26.526;2022-10-23T02:59:09;100046.41;;;11.16;100.00
20019;BME280;10170;42.502;26.526;2022-10-23T03:01:51;100039.47;;;11.21;100.00
20019;BME280;10170;42.502;26.526;2022-10-23T03:04:20;100044.94;;;11.07;100.00
20019;BME280;10170;42.502;26.526;2022-10-23T03:06:50;100050.47;;;11.12;100.00
20019;BME280;10170;42.502;26.526;2022-10-23T03:09:17;100054.25;;;11.37;100.00
20019;BME280;10170;42.502;26.526;2022-10-23T03:11:44;100056.47;;;11.33;100.00
20019;BME280;10170;42.502;26.526;2022-10-23T03:14:12;100053.19;;;11.31;100.00
20019;BME280;10170;42.502;26.526;2022-10-23T03:16:39;100044.59;;;11.29;100.00
20019;BME280;10170;42.502;26.526;2022-10-23T03:19:06;100052.56;;;11.29;100.00
20019;BME280;10170;42.502;26.526;2022-10-23T03:21:32;100049.69;;;11.24;100.00
20019;BME280;10170;42.502;26.526;2022-10-23T03:23:59;100031.81;;;11.05;100.00
20019;BME280;10170;42.502;26.526;2022-10-23T03:26:26;100056.25;;;11.22;100.00
20019;BME280;10170;42.502;26.526;2022-10-23T03:28:53;100039.59;;;11.07;100.00
20019;BME280;10170;42.502;26.526;2022-10-23T03:31:19;100065.44;;;11.13;100.00
20019;BME280;10170;42.502;26.526;2022-10-23T03:33:46;100055.56;;;11.00;100.00
20019;BME280;10170;42.502;26.526;2022-10-23T03:36:13;100058.41;;;10.99;100.00
20019;BME280;10170;42.502;26.526;2022-10-23T03:38:40;100069.66;;;11.01;100.00
20019;BME280;10170;42.502;26.526;2022-10-23T03:41:06;100061.66;;;10.94;100.00
20019;BME280;10170;42.502;26.526;2022-10-23T03:43:33;100067.41;;;10.98;100.00
20019;BME280;10170;42.502;26.526;2022-10-23T03:46:00;100048.34;;;10.88;100.00
20019;BME280;10170;42.502;26.526;2022-10-23T03:48:27;100055.69;;;10.86;100.00
20019;BME280;10170;42.502;26.526;2022-10-23T03:50:54;100065.72;;;10.84;100.00
20019;BME280;10170;42.502;26.526;2022-10-23T03:53:21;100066.47;;;10.78;100.00
20019;BME280;10170;42.502;26.526;2022-10-23T03:55:47;100072.84;;;10.83;100.00
20019;BME280;10170;42.502;26.526;2022-10-23T03:58:14;100059.97;;;10.80;100.00
20019;BME280;10170;42.502;26.526;2022-10-23T04:00:41;100060.72;;;10.74;100.00
20019;BME280;10170;42.502;26.526;2022-10-23T04:03:12;100059.13;;;10.80;100.00
20019;BME280;10170;42.502;26.526;2022-10-23T04:05:41;100080.06;;;10.89;100.00
20019;BME280;10170;42.502;26.526;2022-10-23T04:08:08;100083.28;;;10.85;100.00
20019;BME280;10170;42.502;26.526;2022-10-23T04:10:35;100079.63;;;10.86;100.00
20019;BME280;10170;42.502;26.526;2022-10-23T04:13:02;100082.25;;;10.79;100.00
20019;BME280;10170;42.502;26.526;2022-10-23T04:15:28;100086.59;;;10.52;100.00
20019;BME280;10170;42.502;26.526;2022-10-23T04:17:55;100073.44;;;10.44;100.00
20019;BME280;10170;42.502;26.526;2022-10-23T04:20:22;100085.94;;;10.50;100.00
20019;BME280;10170;42.502;26.526;2022-10-23T04:22:48;100079.91;;;10.63;100.00
20019;BME280;10170;42.502;26.526;2022-10-23T04:25:15;100074.56;;;10.63;100.00
20019;BME280;10170;42.502;26.526;2022-10-23T04:27:42;100081.81;;;10.76;100.00
20019;BME280;10170;42.502;26.526;2022-10-23T04:30:10;100072.06;;;10.83;100.00
20019;BME280;10170;42.502;26.526;2022-10-23T04:32:37;100077.28;;;10.70;100.00
20019;BME280;10170;42.502;26.526;2022-10-23T04:35:04;100084.56;;;10.54;100.00
20019;BME280;10170;42.502;26.526;2022-10-23T04:37:31;100076.69;;;10.40;100.00
20019;BME280;10170;42.502;26.526;2022-10-23T04:39:57;100091.88;;;10.46;100.00
20019;BME280;10170;42.502;26.526;2022-10-23T04:42:24;100091.03;;;10.45;100.00
20019;BME280;10170;42.502;26.526;2022-10-23T04:44:51;100090.25;;;10.45;100.00
20019;BME280;10170;42.502;26.526;2022-10-23T04:47:18;100073.81;;;10.41;100.00
20019;BME280;10170;42.502;26.526;2022-10-23T04:49:44;100077.59;;;10.53;100.00
20019;BME280;10170;42.502;26.526;2022-10-23T04:52:11;100071.84;;;10.50;100.00
20019;BME280;10170;42.502;26.526;2022-10-23T04:54:38;100066.69;;;10.42;100.00
20019;BME280;10170;42.502;26.526;2022-10-23T04:57:05;100064.13;;;10.55;100.00
20019;BME280;10170;42.502;26.526;2022-10-23T04:59:32;100071.66;;;10.51;100.00
20019;BME280;10170;42.502;26.526;2022-10-23T05:01:59;100075.41;;;10.63;100.00
20019;BME280;10170;42.502;26.526;2022-10-23T05:04:26;100083.44;;;10.70;100.00
20019;BME280;10170;42.502;26.526;2022-10-23T05:06:53;100061.13;;;10.71;100.00
20019;BME280;10170;42.502;26.526;2022-10-23T05:09:19;100075.72;;;10.82;100.00
20019;BME280;10170;42.502;26.526;2022-10-23T05:11:48;100077.00;;;10.92;100.00
20019;BME280;10170;42.502;26.526;2022-10-23T05:14:15;100086.63;;;10.93;100.00
20019;BME280;10170;42.502;26.526;2022-10-23T05:16:54;100085.81;;;10.99;100.00
20019;BME280;10170;42.502;26.526;2022-10-23T05:19:27;100079.72;;;11.05;100.00
20019;BME280;10170;42.502;26.526;2022-10-23T05:21:55;100089.03;;;11.29;100.00
20019;BME280;10170;42.502;26.526;2022-10-23T05:24:24;100094.38;;;11.42;100.00
20019;BME280;10170;42.502;26.526;2022-10-23T05:26:51;100105.91;;;11.49;100.00
20019;BME280;10170;42.502;26.526;2022-10-23T05:29:19;100106.75;;;11.62;100.00
20019;BME280;10170;42.502;26.526;2022-10-23T05:31:47;100107.63;;;11.76;100.00
20019;BME280;10170;42.502;26.526;2022-10-23T05:34:17;100122.59;;;11.84;100.00
20019;BME280;10170;42.502;26.526;2022-10-23T05:36:46;100119.72;;;11.85;100.00
20019;BME280;10170;42.502;26.526;2022-10-23T05:39:14;100116.03;;;11.73;100.00
20019;BME280;10170;42.502;26.526;2022-10-23T05:41:41;100141.84;;;11.73;100.00
20019;BME280;10170;42.502;26.526;2022-10-23T05:44:08;100128.34;;;11.74;100.00
20019;BME280;10170;42.502;26.526;2022-10-23T05:46:40;100138.28;;;11.52;100.00
20019;BME280;10170;42.502;26.526;2022-10-23T05:49:07;100140.91;;;11.46;100.00
20019;BME280;10170;42.502;26.526;2022-10-23T05:51:38;100103.19;;;11.36;100.00
20019;BME280;10170;42.502;26.526;2022-10-23T05:54:06;100125.13;;;11.51;100.00
20019;BME280;10170;42.502;26.526;2022-10-23T05:56:35;100121.34;;;11.67;100.00
20019;BME280;10170;42.502;26.526;2022-10-23T05:59:03;100115.25;;;12.05;100.00
20019;BME280;10170;42.502;26.526;2022-10-23T06:01:30;100121.03;;;12.35;100.00
20019;BME280;10170;42.502;26.526;2022-10-23T06:03:58;100094.13;;;12.43;100.00
20019;BME280;10170;42.502;26.526;2022-10-23T06:06:25;100106.38;;;12.77;100.00
20019;BME280;10170;42.502;26.526;2022-10-23T06:08:53;100110.38;;;13.31;100.00
20019;BME280;10170;42.502;26.526;2022-10-23T06:11:21;100111.78;;;13.71;100.00
20019;BME280;10170;42.502;26.526;2022-10-23T06:13:48;100124.03;;;14.17;100.00
20019;BME280;10170;42.502;26.526;2022-10-23T06:16:19;100131.69;;;14.87;100.00
20019;BME280;10170;42.502;26.526;2022-10-23T06:18:47;100119.44;;;14.98;100.00
20019;BME280;10170;42.502;26.526;2022-10-23T06:21:14;100136.00;;;15.06;100.00
20019;BME280;10170;42.502;26.526;2022-10-23T06:23:42;100138.28;;;15.09;100.00
20019;BME280;10170;42.502;26.526;2022-10-23T06:26:11;100140.56;;;15.06;100.00
20019;BME280;10170;42.502;26.526;2022-10-23T06:28:39;100150.75;;;15.33;100.00
20019;BME280;10170;42.502;26.526;2022-10-23T06:31:08;100149.28;;;15.37;100.00
20019;BME280;10170;42.502;26.526;2022-10-23T06:33:35;100148.84;;;15.40;100.00
20019;BME280;10170;42.502;26.526;2022-10-23T06:36:03;100146.25;;;15.81;100.00
20019;BME280;10170;42.502;26.526;2022-10-23T06:38:31;100154.97;;;15.77;100.00
20019;BME280;10170;42.502;26.526;2022-10-23T06:41:04;100162.09;;;16.13;100.00
20019;BME280;10170;42.502;26.526;2022-10-23T06:43:31;100176.41;;;16.36;98.14
20019;BME280;10170;42.502;26.526;2022-10-23T06:46:04;100180.69;;;16.90;94.79
20019;BME280;10170;42.502;26.526;2022-10-23T06:48:31;100178.59;;;16.92;92.00
20019;BME280;10170;42.502;26.526;2022-10-23T06:51:03;100177.44;;;16.35;94.43
20019;BME280;10170;42.502;26.526;2022-10-23T06:53:31;100179.59;;;16.15;100.00
20019;BME280;10170;42.502;26.526;2022-10-23T06:55:59;100143.25;;;15.90;100.00
20019;BME280;10170;42.502;26.526;2022-10-23T06:58:27;100162.59;;;16.21;100.00
20019;BME280;10170;42.502;26.526;2022-10-23T07:00:54;100148.22;;;16.57;96.73
20019;BME280;10170;42.502;26.526;2022-10-23T07:03:21;100161.53;;;16.75;96.74
20019;BME280;10170;42.502;26.526;2022-10-23T07:05:48;100146.84;;;17.52;87.19
20019;BME280;10170;42.502;26.526;2022-10-23T07:08:15;100158.78;;;18.12;82.35
20019;BME280;10170;42.502;26.526;2022-10-23T07:10:41;100151.38;;;17.91;81.64
20019;BME280;10170;42.502;26.526;2022-10-23T07:13:09;100156.78;;;17.51;84.86
20019;BME280;10170;42.502;26.526;2022-10-23T07:15:37;100153.91;;;18.26;83.67
20019;BME280;10170;42.502;26.526;2022-10-23T07:18:05;100155.22;;;18.89;76.45
20019;BME280;10170;42.502;26.526;2022-10-23T07:20:32;100152.44;;;18.84;76.99
20019;BME280;10170;42.502;26.526;2022-10-23T07:22:59;100155.41;;;18.83;76.44
20019;BME280;10170;42.502;26.526;2022-10-23T07:25:26;100151.56;;;18.79;77.69
20019;BME280;10170;42.502;26.526;2022-10-23T07:27:53;100158.84;;;19.33;73.11
20019;BME280;10170;42.502;26.526;2022-10-23T07:30:22;100160.66;;;19.11;73.77
20019;BME280;10170;42.502;26.526;2022-10-23T07:32:50;100149.75;;;19.01;73.31
20019;BME280;10170;42.502;26.526;2022-10-23T07:35:17;100157.63;;;19.89;70.47
20019;BME280;10170;42.502;26.526;2022-10-23T07:37:44;100169.50;;;20.41;69.64
20019;BME280;10170;42.502;26.526;2022-10-23T07:40:11;100164.34;;;21.60;65.48
20019;BME280;10170;42.502;26.526;2022-10-23T07:42:37;100173.00;;;20.73;65.33
20019;BME280;10170;42.502;26.526;2022-10-23T07:45:05;100182.78;;;20.48;65.79
20019;BME280;10170;42.502;26.526;2022-10-23T07:47:33;100172.91;;;20.63;64.99
20019;BME280;10170;42.502;26.526;2022-10-23T07:49:59;100174.63;;;21.06;63.78
20019;BME280;10170;42.502;26.526;2022-10-23T07:52:26;100159.16;;;20.65;64.77
20019;BME280;10170;42.502;26.526;2022-10-23T07:55:00;100157.66;;;19.94;66.43
20019;BME280;10170;42.502;26.526;2022-10-23T07:57:27;100155.06;;;20.04;66.86
20019;BME280;10170;42.502;26.526;2022-10-23T07:59:54;100143.63;;;20.87;65.07
20019;BME280;10170;42.502;26.526;2022-10-23T08:02:21;100152.78;;;21.18;62.99
20019;BME280;10170;42.502;26.526;2022-10-23T08:04:48;100155.25;;;21.96;61.80
20019;BME280;10170;42.502;26.526;2022-10-23T08:07:15;100156.44;;;22.75;59.73
20019;BME280;10170;42.502;26.526;2022-10-23T08:09:42;100165.56;;;23.30;58.36
20019;BME280;10170;42.502;26.526;2022-10-23T08:12:09;100155.38;;;23.65;57.29
20019;BME280;10170;42.502;26.526;2022-10-23T08:14:36;100146.63;;;22.94;58.24
20019;BME280;10170;42.502;26.526;2022-10-23T08:17:03;100153.66;;;23.11;58.95
20019;BME280;10170;42.502;26.526;2022-10-23T08:19:31;100153.25;;;24.11;56.93
20019;BME280;10170;42.502;26.526;2022-10-23T08:21:57;100150.03;;;23.99;56.38
20019;BME280;10170;42.502;26.526;2022-10-23T08:24:24;100149.91;;;24.24;55.83
20019;BME280;10170;42.502;26.526;2022-10-23T08:26:52;100133.97;;;24.13;56.50
20019;BME280;10170;42.502;26.526;2022-10-23T08:29:19;100123.13;;;24.75;55.21
20019;BME280;10170;42.502;26.526;2022-10-23T08:31:46;100143.59;;;25.67;55.03
20019;BME280;10170;42.502;26.526;2022-10-23T08:34:13;100146.88;;;25.45;54.73
20019;BME280;10170;42.502;26.526;2022-10-23T08:36:40;100146.59;;;26.26;53.23
20019;BME280;10170;42.502;26.526;2022-10-23T08:39:08;100156.94;;;26.43;52.41
20019;BME280;10170;42.502;26.526;2022-10-23T08:41:45;100155.47;;;26.82;52.41
20019;BME280;10170;42.502;26.526;2022-10-23T08:44:39;100150.50;;;26.20;54.13
20019;BME280;10170;42.502;26.526;2022-10-23T08:47:17;100157.81;;;26.06;54.58
20019;BME280;10170;42.502;26.526;2022-10-23T08:49:54;100166.84;;;26.20;53.70
20019;BME280;10170;42.502;26.526;2022-10-23T08:52:32;100141.94;;;26.27;53.84
20019;BME280;10170;42.502;26.526;2022-10-23T08:55:16;100147.91;;;26.61;52.80
20019;BME280;10170;42.502;26.526;2022-10-23T08:57:55;100151.38;;;26.66;51.62
20019;BME280;10170;42.502;26.526;2022-10-23T09:00:24;100152.59;;;26.92;50.97
20019;BME280;10170;42.502;26.526;2022-10-23T09:02:52;100148.00;;;26.74;50.08
20019;BME280;10170;42.502;26.526;2022-10-23T09:05:32;100166.56;;;27.18;48.77
20019;BME280;10170;42.502;26.526;2022-10-23T09:10:55;100177.16;;;27.20;48.39
20019;BME280;10170;42.502;26.526;2022-10-23T09:19:17;100171.72;;;27.87;47.51
20019;BME280;10170;42.502;26.526;2022-10-23T09:21:46;100156.50;;;26.86;48.05
20019;BME280;10170;42.502;26.526;2022-10-23T09:24:18;100149.25;;;26.95;47.78
20019;BME280;10170;42.502;26.526;2022-10-23T09:26:47;100161.94;;;27.59;47.07
20019;BME280;10170;42.502;26.526;2022-10-23T09:29:26;100162.22;;;27.58;46.84
20019;BME280;10170;42.502;26.526;2022-10-23T09:31:58;100154.88;;;27.31;46.17
20019;BME280;10170;42.502;26.526;2022-10-23T09:34:28;100159.06;;;27.10;46.34
20019;BME280;10170;42.502;26.526;2022-10-23T09:36:58;100167.41;;;27.46;46.06
20019;BME280;10170;42.502;26.526;2022-10-23T09:39:28;100167.94;;;27.02;46.42
20019;BME280;10170;42.502;26.526;2022-10-23T09:41:57;100174.84;;;27.27;46.03
20019;BME280;10170;42.502;26.526;2022-10-23T09:44:29;100171.50;;;27.02;46.21
20019;BME280;10170;42.502;26.526;2022-10-23T09:49:32;100175.25;;;26.42;46.88
20019;BME280;10170;42.502;26.526;2022-10-23T09:54:31;100159.44;;;27.03;45.37
20019;BME280;10170;42.502;26.526;2022-10-23T09:59:42;100161.78;;;26.96;45.30
20019;BME280;10170;42.502;26.526;2022-10-23T10:02:39;100153.66;;;27.37;44.37
20019;BME280;10170;42.502;26.526;2022-10-23T10:05:25;100151.66;;;26.65;45.53
20019;BME280;10170;42.502;26.526;2022-10-23T10:07:57;100160.69;;;26.47;46.31
20019;BME280;10170;42.502;26.526;2022-10-23T10:10:28;100152.75;;;26.82;45.88
20019;BME280;10170;42.502;26.526;2022-10-23T10:13:05;100149.09;;;27.33;45.54
20019;BME280;10170;42.502;26.526;2022-10-23T10:15:49;100163.91;;;26.67;44.95
20019;BME280;10170;42.502;26.526;2022-10-23T10:18:32;100165.25;;;27.16;44.17
20019;BME280;10170;42.502;26.526;2022-10-23T10:23:59;100166.78;;;26.76;45.12
20019;BME280;10170;42.502;26.526;2022-10-23T10:35:39;100151.22;;;28.12;44.03
20019;BME280;10170;42.502;26.526;2022-10-23T10:47:10;100132.38;;;27.21;45.10
20019;BME280;10170;42.502;26.526;2022-10-23T10:49:50;100131.31;;;26.76;45.46
20019;BME280;10170;42.502;26.526;2022-10-23T10:54:55;100127.28;;;27.14;45.53
20019;BME280;10170;42.502;26.526;2022-10-23T10:57:34;100130.44;;;27.08;45.18
20019;BME280;10170;42.502;26.526;2022-10-23T11:00:12;100130.75;;;27.20;44.89
20019;BME280;10170;42.502;26.526;2022-10-23T11:02:51;100122.78;;;27.37;45.52
20019;BME280;10170;42.502;26.526;2022-10-23T11:05:33;100131.22;;;26.94;46.31
20019;BME280;10170;42.502;26.526;2022-10-23T11:10:37;100134.19;;;27.52;44.91
20019;BME280;10170;42.502;26.526;2022-10-23T11:13:21;100114.53;;;26.82;45.62
20019;BME280;10170;42.502;26.526;2022-10-23T11:15:51;100135.44;;;26.73;46.61
20019;BME280;10170;42.502;26.526;2022-10-23T11:18:28;100138.84;;;26.97;45.77
20019;BME280;10170;42.502;26.526;2022-10-23T11:21:21;100132.00;;;27.41;45.15
20019;BME280;10170;42.502;26.526;2022-10-23T11:26:53;100130.72;;;27.74;45.18
20019;BME280;10170;42.502;26.526;2022-10-23T11:37:32;100114.22;;;27.79;44.54
20019;BME280;10170;42.502;26.526;2022-10-23T11:50:28;100110.78;;;28.09;44.42
20019;BME280;10170;42.502;26.526;2022-10-23T11:53:04;100111.06;;;27.85;44.16
20019;BME280;10170;42.502;26.526;2022-10-23T11:56:19;100111.31;;;27.62;45.02
20019;BME280;10170;42.502;26.526;2022-10-23T11:58:54;100104.44;;;27.51;45.17
20019;BME280;10170;42.502;26.526;2022-10-23T12:01:39;100102.78;;;26.68;45.80
20019;BME280;10170;42.502;26.526;2022-10-23T12:07:02;100119.03;;;27.46;45.05
20019;BME280;10170;42.502;26.526;2022-10-23T12:09:42;100124.13;;;28.24;44.26
20019;BME280;10170;42.502;26.526;2022-10-23T12:14:40;100130.41;;;28.69;43.04
20019;BME280;10170;42.502;26.526;2022-10-23T12:19:53;100132.25;;;27.80;44.74
20019;BME280;10170;42.502;26.526;2022-10-23T12:22:23;100143.41;;;27.56;44.23
20019;BME280;10170;42.502;26.526;2022-10-23T12:25:22;100144.22;;;27.57;44.62
20019;BME280;10170;42.502;26.526;2022-10-23T12:28:00;100141.78;;;28.40;43.77
20019;BME280;10170;42.502;26.526;2022-10-23T12:30:54;100134.16;;;28.29;43.36
20019;BME280;10170;42.502;26.526;2022-10-23T12:33:35;100138.59;;;28.47;42.65
20019;BME280;10170;42.502;26.526;2022-10-23T12:38:45;100131.34;;;27.57;44.24
20019;BME280;10170;42.502;26.526;2022-10-23T12:41:20;100144.50;;;28.40;42.66
20019;BME280;10170;42.502;26.526;2022-10-23T12:43:59;100146.44;;;27.41;43.78
20019;BME280;10170;42.502;26.526;2022-10-23T12:46:31;100134.25;;;26.79;44.56
20019;BME280;10170;42.502;26.526;2022-10-23T12:49:00;100126.22;;;27.42;44.18
20019;BME280;10170;42.502;26.526;2022-10-23T12:51:33;100125.38;;;27.55;44.36
20019;BME280;10170;42.502;26.526;2022-10-23T12:54:01;100129.22;;;27.00;44.72
20019;BME280;10170;42.502;26.526;2022-10-23T12:56:35;100126.50;;;27.27;44.80
20019;BME280;10170;42.502;26.526;2022-10-23T12:59:03;100127.31;;;27.41;44.56
20019;BME280;10170;42.502;26.526;2022-10-23T13:01:33;100124.25;;;27.02;44.60
20019;BME280;10170;42.502;26.526;2022-10-23T13:04:33;100138.44;;;26.40;45.19
20019;BME280;10170;42.502;26.526;2022-10-23T13:07:02;100138.31;;;26.63;44.85
20019;BME280;10170;42.502;26.526;2022-10-23T13:09:34;100137.72;;;26.16;45.41
20019;BME280;10170;42.502;26.526;2022-10-23T13:12:04;100133.25;;;26.06;45.96
20019;BME280;10170;42.502;26.526;2022-10-23T13:14:36;100133.16;;;25.27;47.06
20019;BME280;10170;42.502;26.526;2022-10-23T13:17:10;100134.34;;;24.97;47.69
20019;BME280;10170;42.502;26.526;2022-10-23T13:19:37;100127.66;;;24.84;47.73
20019;BME280;10170;42.502;26.526;2022-10-23T13:22:17;100127.50;;;24.37;49.22
20019;BME280;10170;42.502;26.526;2022-10-23T13:24:45;100130.09;;;24.19;49.66
20019;BME280;10170;42.502;26.526;2022-10-23T13:27:33;100126.09;;;24.06;49.74
20019;BME280;10170;42.502;26.526;2022-10-23T13:30:00;100127.78;;;24.02;49.41
20019;BME280;10170;42.502;26.526;2022-10-23T13:32:33;100135.91;;;23.97;49.56
20019;BME280;10170;42.502;26.526;2022-10-23T13:35:01;100143.44;;;24.15;49.44
20019;BME280;10170;42.502;26.526;2022-10-23T13:37:46;100143.19;;;24.12;50.05
20019;BME280;10170;42.502;26.526;2022-10-23T13:40:24;100152.75;;;23.99;50.32
20019;BME280;10170;42.502;26.526;2022-10-23T13:42:56;100146.81;;;24.02;50.47
20019;BME280;10170;42.502;26.526;2022-10-23T13:45:25;100150.09;;;23.89;50.72
20019;BME280;10170;42.502;26.526;2022-10-23T13:47:52;100141.00;;;23.65;51.10
20019;BME280;10170;42.502;26.526;2022-10-23T13:50:20;100142.06;;;23.69;50.93
20019;BME280;10170;42.502;26.526;2022-10-23T13:52:47;100143.66;;;23.75;51.22
20019;BME280;10170;42.502;26.526;2022-10-23T13:55:24;100134.47;;;23.66;51.27
20019;BME280;10170;42.502;26.526;2022-10-23T13:57:51;100122.81;;;23.65;51.29
20019;BME280;10170;42.502;26.526;2022-10-23T14:00:19;100133.72;;;23.55;52.24
20019;BME280;10170;42.502;26.526;2022-10-23T14:02:45;100132.66;;;23.41;52.76
20019;BME280;10170;42.502;26.526;2022-10-23T14:05:12;100129.44;;;23.39;52.64
20019;BME280;10170;42.502;26.526;2022-10-23T14:07:39;100142.44;;;23.47;52.87
20019;BME280;10170;42.502;26.526;2022-10-23T14:10:08;100140.00;;;23.46;53.24
20019;BME280;10170;42.502;26.526;2022-10-23T14:12:42;100151.69;;;23.41;53.73
20019;BME280;10170;42.502;26.526;2022-10-23T14:15:10;100148.44;;;23.34;53.86
20019;BME280;10170;42.502;26.526;2022-10-23T14:17:37;100158.94;;;23.56;53.55
20019;BME280;10170;42.502;26.526;2022-10-23T14:20:05;100150.03;;;23.45;53.56
20019;BME280;10170;42.502;26.526;2022-10-23T14:22:32;100163.59;;;23.55;53.43
20019;BME280;10170;42.502;26.526;2022-10-23T14:24:59;100158.50;;;23.24;54.10